sensor_id;sensor_type;location;lat;lon;timestamp;temperature;humidity
31733;DHT22;18312;51.486;7.144;2023-08-06T00:01:07;16.20;99.90
31733;DHT22;18312;51.486;7.144;2023-08-06T00:03:35;16.10;99.90
31733;DHT22;18312;51.486;7.144;2023-08-06T00:06:04;16.10;99.90
31733;DHT22;18312;51.486;7.144;2023-08-06T00:08:31;16.10;99.90
31733;DHT22;18312;51.486;7.144;2023-08-06T00:10:59;16.10;99.90
31733;DHT22;18312;51.486;7.144;2023-08-06T00:13:26;16.00;99.90
31733;DHT22;18312;51.486;7.144;2023-08-06T00:15:52;16.00;99.90
31733;DHT22;18312;51.486;7.144;2023-08-06T00:18:19;16.10;99.90
31733;DHT22;18312;51.486;7.144;2023-08-06T00:20:46;16.20;99.90
31733;DHT22;18312;51.486;7.144;2023-08-06T00:23:12;16.20;99.90
31733;DHT22;18312;51.486;7.144;2023-08-06T00:25:39;16.30;99.90
31733;DHT22;18312;51.486;7.144;2023-08-06T00:28:07;16.20;99.90
31733;DHT22;18312;51.486;7.144;2023-08-06T00:30:34;16.20;99.90
31733;DHT22;18312;51.486;7.144;2023-08-06T00:33:01;16.30;99.90
31733;DHT22;18312;51.486;7.144;2023-08-06T00:35:28;16.20;99.90
31733;DHT22;18312;51.486;7.144;2023-08-06T00:37:56;16.30;99.90
31733;DHT22;18312;51.486;7.144;2023-08-06T00:40:22;16.20;99.90
31733;DHT22;18312;51.486;7.144;2023-08-06T00:42:49;16.30;99.90
31733;DHT22;18312;51.486;7.144;2023-08-06T00:45:17;16.20;99.90
31733;DHT22;18312;51.486;7.144;2023-08-06T00:47:44;16.20;99.90
31733;DHT22;18312;51.486;7.144;2023-08-06T00:50:11;16.30;99.90
31733;DHT22;18312;51.486;7.144;2023-08-06T00:52:38;16.30;99.90
31733;DHT22;18312;51.486;7.144;2023-08-06T00:55:06;16.30;99.90
31733;DHT22;18312;51.486;7.144;2023-08-06T00:57:33;16.30;99.90
31733;DHT22;18312;51.486;7.144;2023-08-06T01:00:00;16.30;99.90
31733;DHT22;18312;51.486;7.144;2023-08-06T01:02:28;16.30;99.90
31733;DHT22;18312;51.486;7.144;2023-08-06T01:04:55;16.30;99.90
31733;DHT22;18312;51.486;7.144;2023-08-06T01:07:31;16.30;99.90
31733;DHT22;18312;51.486;7.144;2023-08-06T01:10:10;16.30;99.90
31733;DHT22;18312;51.486;7.144;2023-08-06T01:12:45;16.30;99.90
31733;DHT22;18312;51.486;7.144;2023-08-06T01:15:17;16.30;99.90
31733;DHT22;18312;51.486;7.144;2023-08-06T01:17:46;16.40;99.90
31733;DHT22;18312;51.486;7.144;2023-08-06T01:20:13;16.30;99.90
31733;DHT22;18312;51.486;7.144;2023-08-06T01:22:41;16.30;99.90
31733;DHT22;18312;51.486;7.144;2023-08-06T01:25:08;16.30;99.90
31733;DHT22;18312;51.486;7.144;2023-08-06T01:27:42;16.30;99.90
31733;DHT22;18312;51.486;7.144;2023-08-06T01:30:13;16.30;99.90
31733;DHT22;18312;51.486;7.144;2023-08-06T01:32:44;16.30;99.90
31733;DHT22;18312;51.486;7.144;2023-08-06T01:35:13;16.30;99.90
31733;DHT22;18312;51.486;7.144;2023-08-06T01:37:43;16.30;99.90
31733;DHT22;18312;51.486;7.144;2023-08-06T01:40:11;16.30;99.90
31733;DHT22;18312;51.486;7.144;2023-08-06T01:42:38;16.40;99.90
31733;DHT22;18312;51.486;7.144;2023-08-06T01:45:06;16.40;99.90
31733;DHT22;18312;51.486;7.144;2023-08-06T01:47:33;16.40;99.90
31733;DHT22;18312;51.486;7.144;2023-08-06T01:50:00;16.40;99.90
31733;DHT22;18312;51.486;7.144;2023-08-06T01:52:27;16.40;99.90
31733;DHT22;18312;51.486;7.144;2023-08-06T01:54:56;16.40;99.90
31733;DHT22;18312;51.486;7.144;2023-08-06T01:57:22;16.40;99.90
31733;DHT22;18312;51.486;7.144;2023-08-06T01:59:49;16.40;99.90
31733;DHT22;18312;51.486;7.144;2023-08-06T02:02:16;16.40;99.90
31733;DHT22;18312;51.486;7.144;2023-08-06T02:04:43;16.40;99.90
31733;DHT22;18312;51.486;7.144;2023-08-06T02:07:09;16.40;99.90
31733;DHT22;18312;51.486;7.144;2023-08-06T02:09:36;16.40;99.90
31733;DHT22;18312;51.486;7.144;2023-08-06T02:12:05;16.40;99.90
31733;DHT22;18312;51.486;7.144;2023-08-06T02:14:32;16.40;99.90
31733;DHT22;18312;51.486;7.144;2023-08-06T02:16:59;16.40;99.90
31733;DHT22;18312;51.486;7.144;2023-08-06T02:19:26;16.40;99.90
31733;DHT22;18312;51.486;7.144;2023-08-06T02:21:53;16.40;99.90
31733;DHT22;18312;51.486;7.144;2023-08-06T02:24:19;16.30;99.90
31733;DHT22;18312;51.486;7.144;2023-08-06T02:26:46;16.40;99.90
31733;DHT22;18312;51.486;7.144;2023-08-06T02:29:16;16.40;99.90
31733;DHT22;18312;51.486;7.144;2023-08-06T02:31:42;16.40;99.90
31733;DHT22;18312;51.486;7.144;2023-08-06T02:34:09;16.40;99.90
31733;DHT22;18312;51.486;7.144;2023-08-06T02:36:36;16.30;99.90
31733;DHT22;18312;51.486;7.144;2023-08-06T02:39:02;16.30;99.90
31733;DHT22;18312;51.486;7.144;2023-08-06T02:41:29;16.30;99.90
31733;DHT22;18312;51.486;7.144;2023-08-06T02:43:56;16.30;99.90
31733;DHT22;18312;51.486;7.144;2023-08-06T02:46:24;16.30;99.90
31733;DHT22;18312;51.486;7.144;2023-08-06T02:48:51;16.40;99.90
31733;DHT22;18312;51.486;7.144;2023-08-06T02:51:17;16.30;99.90
31733;DHT22;18312;51.486;7.144;2023-08-06T02:53:44;16.30;99.90
31733;DHT22;18312;51.486;7.144;2023-08-06T02:56:11;16.30;99.90
31733;DHT22;18312;51.486;7.144;2023-08-06T02:58:37;16.20;99.90
31733;DHT22;18312;51.486;7.144;2023-08-06T03:01:05;16.20;99.90
31733;DHT22;18312;51.486;7.144;2023-08-06T03:03:34;16.10;99.90
31733;DHT22;18312;51.486;7.144;2023-08-06T03:06:01;16.00;99.90
31733;DHT22;18312;51.486;7.144;2023-08-06T03:08:28;16.00;99.90
31733;DHT22;18312;51.486;7.144;2023-08-06T03:10:55;16.00;99.90
31733;DHT22;18312;51.486;7.144;2023-08-06T03:13:21;16.00;99.90
31733;DHT22;18312;51.486;7.144;2023-08-06T03:15:52;16.00;99.90
31733;DHT22;18312;51.486;7.144;2023-08-06T03:18:19;16.10;99.90
31733;DHT22;18312;51.486;7.144;2023-08-06T03:20:48;16.10;99.90
31733;DHT22;18312;51.486;7.144;2023-08-06T03:23:15;16.10;99.90
31733;DHT22;18312;51.486;7.144;2023-08-06T03:25:41;16.10;99.90
31733;DHT22;18312;51.486;7.144;2023-08-06T03:28:08;16.10;99.90
31733;DHT22;18312;51.486;7.144;2023-08-06T03:30:35;16.10;99.90
31733;DHT22;18312;51.486;7.144;2023-08-06T03:33:02;16.10;99.90
31733;DHT22;18312;51.486;7.144;2023-08-06T03:35:28;16.10;99.90
31733;DHT22;18312;51.486;7.144;2023-08-06T03:37:57;16.10;99.90
31733;DHT22;18312;51.486;7.144;2023-08-06T03:40:23;16.10;99.90
31733;DHT22;18312;51.486;7.144;2023-08-06T03:42:50;16.10;99.90
31733;DHT22;18312;51.486;7.144;2023-08-06T03:45:17;16.20;99.90
31733;DHT22;18312;51.486;7.144;2023-08-06T03:47:44;16.20;99.90
31733;DHT22;18312;51.486;7.144;2023-08-06T03:50:10;16.10;99.90
31733;DHT22;18312;51.486;7.144;2023-08-06T03:52:37;16.10;99.90
31733;DHT22;18312;51.486;7.144;2023-08-06T03:55:06;16.10;99.90
31733;DHT22;18312;51.486;7.144;2023-08-06T03:57:32;16.10;99.90
31733;DHT22;18312;51.486;7.144;2023-08-06T03:59:59;16.10;99.90
31733;DHT22;18312;51.486;7.144;2023-08-06T04:02:26;16.10;99.90
31733;DHT22;18312;51.486;7.144;2023-08-06T04:04:53;16.10;99.90
31733;DHT22;18312;51.486;7.144;2023-08-06T04:07:19;16.10;99.90
31733;DHT22;18312;51.486;7.144;2023-08-06T04:09:53;16.20;99.90
31733;DHT22;18312;51.486;7.144;2023-08-06T04:12:22;16.20;99.90
31733;DHT22;18312;51.486;7.144;2023-08-06T04:14:50;16.20;99.90
31733;DHT22;18312;51.486;7.144;2023-08-06T04:17:17;16.20;99.90
31733;DHT22;18312;51.486;7.144;2023-08-06T04:19:46;16.10;99.90
31733;DHT22;18312;51.486;7.144;2023-08-06T04:22:13;16.10;99.90
31733;DHT22;18312;51.486;7.144;2023-08-06T04:24:40;16.10;99.90
31733;DHT22;18312;51.486;7.144;2023-08-06T04:27:07;16.10;99.90
31733;DHT22;18312;51.486;7.144;2023-08-06T04:29:35;16.10;99.90
31733;DHT22;18312;51.486;7.144;2023-08-06T04:32:05;16.00;99.90
31733;DHT22;18312;51.486;7.144;2023-08-06T04:34:31;16.10;99.90
31733;DHT22;18312;51.486;7.144;2023-08-06T04:36:58;16.00;99.90
31733;DHT22;18312;51.486;7.144;2023-08-06T04:39:25;16.00;99.90
31733;DHT22;18312;51.486;7.144;2023-08-06T04:41:52;15.90;99.90
31733;DHT22;18312;51.486;7.144;2023-08-06T04:44:19;15.90;99.90
31733;DHT22;18312;51.486;7.144;2023-08-06T04:46:48;15.90;99.90
31733;DHT22;18312;51.486;7.144;2023-08-06T04:49:15;15.90;99.90
31733;DHT22;18312;51.486;7.144;2023-08-06T04:51:41;15.90;99.90
31733;DHT22;18312;51.486;7.144;2023-08-06T04:54:08;16.00;99.90
31733;DHT22;18312;51.486;7.144;2023-08-06T04:56:35;16.00;99.90
31733;DHT22;18312;51.486;7.144;2023-08-06T04:59:02;15.90;99.90
31733;DHT22;18312;51.486;7.144;2023-08-06T05:01:28;16.00;99.90
31733;DHT22;18312;51.486;7.144;2023-08-06T05:03:57;16.00;99.90
31733;DHT22;18312;51.486;7.144;2023-08-06T05:06:23;16.00;99.90
31733;DHT22;18312;51.486;7.144;2023-08-06T05:08:50;16.00;99.90
31733;DHT22;18312;51.486;7.144;2023-08-06T05:11:17;16.10;99.90
31733;DHT22;18312;51.486;7.144;2023-08-06T05:13:44;16.10;99.90
31733;DHT22;18312;51.486;7.144;2023-08-06T05:16:10;16.20;99.90
31733;DHT22;18312;51.486;7.144;2023-08-06T05:18:37;16.30;99.90
31733;DHT22;18312;51.486;7.144;2023-08-06T05:21:06;16.30;99.90
31733;DHT22;18312;51.486;7.144;2023-08-06T05:23:32;16.30;99.90
31733;DHT22;18312;51.486;7.144;2023-08-06T05:25:59;16.40;99.90
31733;DHT22;18312;51.486;7.144;2023-08-06T05:28:26;16.40;99.90
31733;DHT22;18312;51.486;7.144;2023-08-06T05:30:52;16.50;99.90
31733;DHT22;18312;51.486;7.144;2023-08-06T05:33:19;16.60;99.90
31733;DHT22;18312;51.486;7.144;2023-08-06T05:35:46;16.70;99.90
31733;DHT22;18312;51.486;7.144;2023-08-06T05:38:14;16.80;99.90
31733;DHT22;18312;51.486;7.144;2023-08-06T05:40:41;16.80;99.90
31733;DHT22;18312;51.486;7.144;2023-08-06T05:43:08;16.80;99.90
31733;DHT22;18312;51.486;7.144;2023-08-06T05:45:35;16.80;99.90
31733;DHT22;18312;51.486;7.144;2023-08-06T05:48:02;16.90;99.90
31733;DHT22;18312;51.486;7.144;2023-08-06T05:50:29;16.90;99.90
31733;DHT22;18312;51.486;7.144;2023-08-06T05:52:55;16.90;99.90
31733;DHT22;18312;51.486;7.144;2023-08-06T05:55:23;16.90;99.90
31733;DHT22;18312;51.486;7.144;2023-08-06T05:57:50;17.00;99.90
31733;DHT22;18312;51.486;7.144;2023-08-06T06:00:18;17.10;99.90
31733;DHT22;18312;51.486;7.144;2023-08-06T06:02:46;17.30;99.90
31733;DHT22;18312;51.486;7.144;2023-08-06T06:05:12;17.40;99.90
31733;DHT22;18312;51.486;7.144;2023-08-06T06:07:39;17.60;99.90
31733;DHT22;18312;51.486;7.144;2023-08-06T06:10:07;17.80;99.90
31733;DHT22;18312;51.486;7.144;2023-08-06T06:12:35;17.90;99.90
31733;DHT22;18312;51.486;7.144;2023-08-06T06:15:02;18.10;99.90
31733;DHT22;18312;51.486;7.144;2023-08-06T06:17:29;18.20;99.90
31733;DHT22;18312;51.486;7.144;2023-08-06T06:19:57;18.20;99.90
31733;DHT22;18312;51.486;7.144;2023-08-06T06:22:23;18.30;99.90
31733;DHT22;18312;51.486;7.144;2023-08-06T06:24:50;18.30;99.90
31733;DHT22;18312;51.486;7.144;2023-08-06T06:27:17;18.30;99.90
31733;DHT22;18312;51.486;7.144;2023-08-06T06:29:45;18.40;99.90
31733;DHT22;18312;51.486;7.144;2023-08-06T06:32:12;18.40;99.90
31733;DHT22;18312;51.486;7.144;2023-08-06T06:34:39;18.40;99.90
31733;DHT22;18312;51.486;7.144;2023-08-06T06:37:06;18.50;99.90
31733;DHT22;18312;51.486;7.144;2023-08-06T06:39:33;18.50;99.90
31733;DHT22;18312;51.486;7.144;2023-08-06T06:41:59;18.50;99.90
31733;DHT22;18312;51.486;7.144;2023-08-06T06:44:26;18.50;99.90
31733;DHT22;18312;51.486;7.144;2023-08-06T06:46:55;18.60;99.90
31733;DHT22;18312;51.486;7.144;2023-08-06T06:49:26;18.50;99.90
31733;DHT22;18312;51.486;7.144;2023-08-06T06:51:53;18.60;99.90
31733;DHT22;18312;51.486;7.144;2023-08-06T06:54:21;18.70;99.90
31733;DHT22;18312;51.486;7.144;2023-08-06T06:56:48;18.60;99.90
31733;DHT22;18312;51.486;7.144;2023-08-06T06:59:17;18.90;99.90
31733;DHT22;18312;51.486;7.144;2023-08-06T07:01:44;19.00;99.90
31733;DHT22;18312;51.486;7.144;2023-08-06T07:04:12;19.20;99.90
31733;DHT22;18312;51.486;7.144;2023-08-06T07:06:39;19.30;99.90
31733;DHT22;18312;51.486;7.144;2023-08-06T07:09:06;19.30;99.90
31733;DHT22;18312;51.486;7.144;2023-08-06T07:11:34;19.20;99.90
31733;DHT22;18312;51.486;7.144;2023-08-06T07:14:02;18.80;99.90
31733;DHT22;18312;51.486;7.144;2023-08-06T07:16:29;18.70;99.90
31733;DHT22;18312;51.486;7.144;2023-08-06T07:19:16;18.70;99.90
31733;DHT22;18312;51.486;7.144;2023-08-06T07:21:43;18.50;99.90
31733;DHT22;18312;51.486;7.144;2023-08-06T07:24:10;18.50;99.90
31733;DHT22;18312;51.486;7.144;2023-08-06T07:26:39;18.40;99.90
31733;DHT22;18312;51.486;7.144;2023-08-06T07:29:06;18.30;99.90
31733;DHT22;18312;51.486;7.144;2023-08-06T07:31:35;18.30;99.90
31733;DHT22;18312;51.486;7.144;2023-08-06T07:34:02;18.30;99.90
31733;DHT22;18312;51.486;7.144;2023-08-06T07:36:31;18.30;99.90
31733;DHT22;18312;51.486;7.144;2023-08-06T07:39:29;18.20;99.90
31733;DHT22;18312;51.486;7.144;2023-08-06T07:41:56;18.10;99.90
31733;DHT22;18312;51.486;7.144;2023-08-06T07:44:23;18.20;99.90
31733;DHT22;18312;51.486;7.144;2023-08-06T07:46:50;18.40;99.90
31733;DHT22;18312;51.486;7.144;2023-08-06T07:49:17;18.50;99.90
31733;DHT22;18312;51.486;7.144;2023-08-06T07:51:50;18.60;99.90
31733;DHT22;18312;51.486;7.144;2023-08-06T07:54:18;18.70;99.90
31733;DHT22;18312;51.486;7.144;2023-08-06T07:56:45;18.80;99.90
31733;DHT22;18312;51.486;7.144;2023-08-06T07:59:12;18.90;99.90
31733;DHT22;18312;51.486;7.144;2023-08-06T08:02:00;19.10;99.90
31733;DHT22;18312;51.486;7.144;2023-08-06T08:04:27;19.20;99.90
31733;DHT22;18312;51.486;7.144;2023-08-06T08:06:56;18.90;99.90
31733;DHT22;18312;51.486;7.144;2023-08-06T08:09:23;19.30;99.90
31733;DHT22;18312;51.486;7.144;2023-08-06T08:11:49;19.70;99.90
31733;DHT22;18312;51.486;7.144;2023-08-06T08:14:17;20.10;99.90
31733;DHT22;18312;51.486;7.144;2023-08-06T08:16:45;20.20;99.90
31733;DHT22;18312;51.486;7.144;2023-08-06T08:19:11;20.00;99.90
31733;DHT22;18312;51.486;7.144;2023-08-06T08:21:38;19.80;99.90
31733;DHT22;18312;51.486;7.144;2023-08-06T08:24:06;19.80;99.90
31733;DHT22;18312;51.486;7.144;2023-08-06T08:26:33;19.90;99.90
31733;DHT22;18312;51.486;7.144;2023-08-06T08:29:07;19.60;99.90
31733;DHT22;18312;51.486;7.144;2023-08-06T08:31:34;19.60;99.90
31733;DHT22;18312;51.486;7.144;2023-08-06T08:34:05;19.70;99.90
31733;DHT22;18312;51.486;7.144;2023-08-06T08:36:31;19.70;99.90
31733;DHT22;18312;51.486;7.144;2023-08-06T08:38:58;19.90;99.90
31733;DHT22;18312;51.486;7.144;2023-08-06T08:41:29;19.60;99.90
31733;DHT22;18312;51.486;7.144;2023-08-06T08:43:58;19.70;99.90
31733;DHT22;18312;51.486;7.144;2023-08-06T08:46:26;19.60;99.90
31733;DHT22;18312;51.486;7.144;2023-08-06T08:48:53;19.70;99.90
31733;DHT22;18312;51.486;7.144;2023-08-06T08:51:21;19.70;99.90
31733;DHT22;18312;51.486;7.144;2023-08-06T08:53:49;19.40;99.90
31733;DHT22;18312;51.486;7.144;2023-08-06T08:56:19;19.50;99.90
31733;DHT22;18312;51.486;7.144;2023-08-06T08:58:51;19.50;99.90
31733;DHT22;18312;51.486;7.144;2023-08-06T09:01:22;19.20;99.90
31733;DHT22;18312;51.486;7.144;2023-08-06T09:03:51;19.20;99.90
31733;DHT22;18312;51.486;7.144;2023-08-06T09:06:26;19.00;99.90
31733;DHT22;18312;51.486;7.144;2023-08-06T09:09:00;18.70;99.90
31733;DHT22;18312;51.486;7.144;2023-08-06T09:11:28;18.50;99.90
31733;DHT22;18312;51.486;7.144;2023-08-06T09:13:58;18.40;99.90
31733;DHT22;18312;51.486;7.144;2023-08-06T09:16:28;18.30;99.90
31733;DHT22;18312;51.486;7.144;2023-08-06T09:19:15;18.30;99.90
31733;DHT22;18312;51.486;7.144;2023-08-06T09:21:43;18.30;99.90
31733;DHT22;18312;51.486;7.144;2023-08-06T09:24:10;18.00;99.90
31733;DHT22;18312;51.486;7.144;2023-08-06T09:26:38;17.60;99.90
31733;DHT22;18312;51.486;7.144;2023-08-06T09:29:07;17.30;99.90
31733;DHT22;18312;51.486;7.144;2023-08-06T09:31:40;17.40;99.90
31733;DHT22;18312;51.486;7.144;2023-08-06T09:34:11;17.40;99.90
31733;DHT22;18312;51.486;7.144;2023-08-06T09:36:41;17.40;99.90
31733;DHT22;18312;51.486;7.144;2023-08-06T09:39:13;17.40;99.90
31733;DHT22;18312;51.486;7.144;2023-08-06T09:41:39;17.20;99.90
31733;DHT22;18312;51.486;7.144;2023-08-06T09:44:15;17.30;99.90
31733;DHT22;18312;51.486;7.144;2023-08-06T09:46:45;17.40;99.90
31733;DHT22;18312;51.486;7.144;2023-08-06T09:49:13;17.30;99.90
31733;DHT22;18312;51.486;7.144;2023-08-06T09:51:41;17.40;99.90
31733;DHT22;18312;51.486;7.144;2023-08-06T09:54:08;17.40;99.90
31733;DHT22;18312;51.486;7.144;2023-08-06T09:56:38;17.50;99.90
31733;DHT22;18312;51.486;7.144;2023-08-06T09:59:05;17.60;99.90
31733;DHT22;18312;51.486;7.144;2023-08-06T10:01:34;17.80;99.90
31733;DHT22;18312;51.486;7.144;2023-08-06T10:04:05;18.10;99.90
31733;DHT22;18312;51.486;7.144;2023-08-06T10:06:34;18.20;99.90
31733;DHT22;18312;51.486;7.144;2023-08-06T10:09:02;18.40;99.90
31733;DHT22;18312;51.486;7.144;2023-08-06T10:11:31;18.50;99.90
31733;DHT22;18312;51.486;7.144;2023-08-06T10:14:02;18.60;99.90
31733;DHT22;18312;51.486;7.144;2023-08-06T10:16:33;18.80;99.90
31733;DHT22;18312;51.486;7.144;2023-08-06T10:19:01;18.80;99.90
31733;DHT22;18312;51.486;7.144;2023-08-06T10:21:30;19.10;99.90
31733;DHT22;18312;51.486;7.144;2023-08-06T10:23:57;19.60;99.90
31733;DHT22;18312;51.486;7.144;2023-08-06T10:26:28;19.70;99.90
31733;DHT22;18312;51.486;7.144;2023-08-06T10:28:55;19.90;99.90
31733;DHT22;18312;51.486;7.144;2023-08-06T10:31:58;20.00;99.90
31733;DHT22;18312;51.486;7.144;2023-08-06T10:34:54;20.20;99.90
31733;DHT22;18312;51.486;7.144;2023-08-06T10:37:21;20.30;99.90
31733;DHT22;18312;51.486;7.144;2023-08-06T10:39:49;20.00;99.90
31733;DHT22;18312;51.486;7.144;2023-08-06T10:42:20;20.00;99.90
31733;DHT22;18312;51.486;7.144;2023-08-06T10:45:11;19.90;99.90
31733;DHT22;18312;51.486;7.144;2023-08-06T10:47:39;19.80;99.90
31733;DHT22;18312;51.486;7.144;2023-08-06T10:50:07;19.10;99.90
31733;DHT22;18312;51.486;7.144;2023-08-06T10:52:35;18.60;99.90
31733;DHT22;18312;51.486;7.144;2023-08-06T10:55:03;18.40;99.90
31733;DHT22;18312;51.486;7.144;2023-08-06T10:57:31;18.10;99.90
31733;DHT22;18312;51.486;7.144;2023-08-06T10:59:58;17.80;99.90
31733;DHT22;18312;51.486;7.144;2023-08-06T11:02:25;17.70;99.90
31733;DHT22;18312;51.486;7.144;2023-08-06T11:04:54;17.40;99.90
31733;DHT22;18312;51.486;7.144;2023-08-06T11:07:22;17.40;99.90
31733;DHT22;18312;51.486;7.144;2023-08-06T11:09:50;17.70;99.90
31733;DHT22;18312;51.486;7.144;2023-08-06T11:12:19;17.70;99.90
31733;DHT22;18312;51.486;7.144;2023-08-06T11:14:50;17.90;99.90
31733;DHT22;18312;51.486;7.144;2023-08-06T11:17:24;17.90;99.90
31733;DHT22;18312;51.486;7.144;2023-08-06T11:19:54;17.70;99.90
31733;DHT22;18312;51.486;7.144;2023-08-06T11:22:24;17.90;99.90
31733;DHT22;18312;51.486;7.144;2023-08-06T11:24:51;18.20;99.90
31733;DHT22;18312;51.486;7.144;2023-08-06T11:27:19;18.40;99.90
31733;DHT22;18312;51.486;7.144;2023-08-06T11:29:46;18.60;99.90
31733;DHT22;18312;51.486;7.144;2023-08-06T11:32:16;18.60;99.90
31733;DHT22;18312;51.486;7.144;2023-08-06T11:34:44;18.60;99.90
31733;DHT22;18312;51.486;7.144;2023-08-06T11:37:13;18.90;99.90
31733;DHT22;18312;51.486;7.144;2023-08-06T11:39:53;19.20;99.90
31733;DHT22;18312;51.486;7.144;2023-08-06T11:42:23;19.50;99.90
31733;DHT22;18312;51.486;7.144;2023-08-06T11:44:50;19.10;99.90
31733;DHT22;18312;51.486;7.144;2023-08-06T11:47:18;18.70;99.90
31733;DHT22;18312;51.486;7.144;2023-08-06T11:49:47;18.40;99.90
31733;DHT22;18312;51.486;7.144;2023-08-06T11:52:22;18.40;99.90
31733;DHT22;18312;51.486;7.144;2023-08-06T11:55:11;18.50;99.90
31733;DHT22;18312;51.486;7.144;2023-08-06T11:57:46;18.60;99.90
31733;DHT22;18312;51.486;7.144;2023-08-06T12:00:18;18.60;99.90
31733;DHT22;18312;51.486;7.144;2023-08-06T12:02:48;18.40;99.90
31733;DHT22;18312;51.486;7.144;2023-08-06T12:05:18;18.10;99.90
31733;DHT22;18312;51.486;7.144;2023-08-06T12:07:54;17.60;99.90
31733;DHT22;18312;51.486;7.144;2023-08-06T12:10:30;17.20;99.90
31733;DHT22;18312;51.486;7.144;2023-08-06T12:13:04;16.60;99.90
31733;DHT22;18312;51.486;7.144;2023-08-06T12:15:33;16.30;99.90
31733;DHT22;18312;51.486;7.144;2023-08-06T12:18:02;16.20;99.90
31733;DHT22;18312;51.486;7.144;2023-08-06T12:20:37;16.00;99.90
31733;DHT22;18312;51.486;7.144;2023-08-06T12:23:11;16.00;99.90
31733;DHT22;18312;51.486;7.144;2023-08-06T12:25:52;15.90;99.90
31733;DHT22;18312;51.486;7.144;2023-08-06T12:28:19;15.90;99.90
31733;DHT22;18312;51.486;7.144;2023-08-06T12:30:55;16.00;99.90
31733;DHT22;18312;51.486;7.144;2023-08-06T12:33:22;15.90;99.90
31733;DHT22;18312;51.486;7.144;2023-08-06T12:35:49;15.80;99.90
31733;DHT22;18312;51.486;7.144;2023-08-06T12:38:23;15.60;99.90
31733;DHT22;18312;51.486;7.144;2023-08-06T12:40:50;15.60;99.90
31733;DHT22;18312;51.486;7.144;2023-08-06T12:43:19;15.30;99.90
31733;DHT22;18312;51.486;7.144;2023-08-06T12:45:46;15.30;99.90
31733;DHT22;18312;51.486;7.144;2023-08-06T12:48:14;15.20;99.90
31733;DHT22;18312;51.486;7.144;2023-08-06T12:50:41;15.00;99.90
31733;DHT22;18312;51.486;7.144;2023-08-06T12:53:07;14.80;99.90
31733;DHT22;18312;51.486;7.144;2023-08-06T12:55:36;14.70;99.90
31733;DHT22;18312;51.486;7.144;2023-08-06T12:58:02;14.80;99.90
31733;DHT22;18312;51.486;7.144;2023-08-06T13:00:29;14.70;99.90
31733;DHT22;18312;51.486;7.144;2023-08-06T13:02:57;14.60;99.90
31733;DHT22;18312;51.486;7.144;2023-08-06T13:05:24;14.60;99.90
31733;DHT22;18312;51.486;7.144;2023-08-06T13:07:51;14.40;99.90
31733;DHT22;18312;51.486;7.144;2023-08-06T13:10:18;14.50;99.90
31733;DHT22;18312;51.486;7.144;2023-08-06T13:12:47;15.00;99.90
31733;DHT22;18312;51.486;7.144;2023-08-06T13:15:14;15.80;99.90
31733;DHT22;18312;51.486;7.144;2023-08-06T13:17:42;18.40;99.90
31733;DHT22;18312;51.486;7.144;2023-08-06T13:20:11;18.60;99.90
31733;DHT22;18312;51.486;7.144;2023-08-06T13:22:38;18.50;99.90
31733;DHT22;18312;51.486;7.144;2023-08-06T13:25:05;18.60;99.90
31733;DHT22;18312;51.486;7.144;2023-08-06T13:27:32;18.50;99.90
31733;DHT22;18312;51.486;7.144;2023-08-06T13:30:00;18.50;99.90
31733;DHT22;18312;51.486;7.144;2023-08-06T13:32:27;18.70;99.90
31733;DHT22;18312;51.486;7.144;2023-08-06T13:34:55;18.70;99.90
31733;DHT22;18312;51.486;7.144;2023-08-06T13:37:22;18.70;99.90
31733;DHT22;18312;51.486;7.144;2023-08-06T13:39:49;18.90;99.90
31733;DHT22;18312;51.486;7.144;2023-08-06T13:42:16;18.80;99.90
31733;DHT22;18312;51.486;7.144;2023-08-06T13:44:43;18.90;99.90
31733;DHT22;18312;51.486;7.144;2023-08-06T13:47:12;18.90;99.90
31733;DHT22;18312;51.486;7.144;2023-08-06T13:49:47;19.00;99.90
31733;DHT22;18312;51.486;7.144;2023-08-06T13:52:22;19.00;99.90
31733;DHT22;18312;51.486;7.144;2023-08-06T13:54:51;19.10;99.90
31733;DHT22;18312;51.486;7.144;2023-08-06T13:57:30;19.10;99.90
31733;DHT22;18312;51.486;7.144;2023-08-06T14:00:00;19.20;99.90
31733;DHT22;18312;51.486;7.144;2023-08-06T14:05:52;19.50;99.90
31733;DHT22;18312;51.486;7.144;2023-08-06T14:08:22;19.60;99.90
31733;DHT22;18312;51.486;7.144;2023-08-06T14:10:49;19.60;99.90
31733;DHT22;18312;51.486;7.144;2023-08-06T14:13:22;19.60;99.90
31733;DHT22;18312;51.486;7.144;2023-08-06T14:16:11;19.80;99.90
31733;DHT22;18312;51.486;7.144;2023-08-06T14:18:40;19.80;99.90
31733;DHT22;18312;51.486;7.144;2023-08-06T14:21:07;19.70;99.90
31733;DHT22;18312;51.486;7.144;2023-08-06T14:23:33;19.80;99.90
31733;DHT22;18312;51.486;7.144;2023-08-06T14:26:02;19.70;99.90
31733;DHT22;18312;51.486;7.144;2023-08-06T14:28:31;19.80;99.90
31733;DHT22;18312;51.486;7.144;2023-08-06T14:31:14;19.80;99.90
31733;DHT22;18312;51.486;7.144;2023-08-06T14:33:49;19.90;99.90
31733;DHT22;18312;51.486;7.144;2023-08-06T14:36:21;19.90;99.90
31733;DHT22;18312;51.486;7.144;2023-08-06T14:38:49;19.90;99.90
31733;DHT22;18312;51.486;7.144;2023-08-06T14:41:17;19.90;99.90
31733;DHT22;18312;51.486;7.144;2023-08-06T14:43:52;19.90;99.90
31733;DHT22;18312;51.486;7.144;2023-08-06T14:46:20;20.10;99.90
31733;DHT22;18312;51.486;7.144;2023-08-06T14:48:55;20.10;99.90
31733;DHT22;18312;51.486;7.144;2023-08-06T14:51:22;20.10;99.90
31733;DHT22;18312;51.486;7.144;2023-08-06T14:53:49;20.00;99.90
31733;DHT22;18312;51.486;7.144;2023-08-06T14:56:16;20.10;99.90
31733;DHT22;18312;51.486;7.144;2023-08-06T14:58:43;20.10;99.90
31733;DHT22;18312;51.486;7.144;2023-08-06T15:01:10;19.90;99.90
31733;DHT22;18312;51.486;7.144;2023-08-06T15:03:37;20.00;99.90
31733;DHT22;18312;51.486;7.144;2023-08-06T15:06:05;20.00;99.90
31733;DHT22;18312;51.486;7.144;2023-08-06T15:08:32;20.00;99.90
31733;DHT22;18312;51.486;7.144;2023-08-06T15:10:58;20.00;99.90
31733;DHT22;18312;51.486;7.144;2023-08-06T15:13:27;20.00;99.90
31733;DHT22;18312;51.486;7.144;2023-08-06T15:15:54;19.90;99.90
31733;DHT22;18312;51.486;7.144;2023-08-06T15:18:21;19.90;99.90
31733;DHT22;18312;51.486;7.144;2023-08-06T15:20:47;20.00;99.90
31733;DHT22;18312;51.486;7.144;2023-08-06T15:23:16;19.80;99.90
31733;DHT22;18312;51.486;7.144;2023-08-06T15:25:42;19.80;99.90
31733;DHT22;18312;51.486;7.144;2023-08-06T15:28:09;19.80;99.90
31733;DHT22;18312;51.486;7.144;2023-08-06T15:30:36;20.00;99.90
31733;DHT22;18312;51.486;7.144;2023-08-06T15:33:03;19.90;99.90
31733;DHT22;18312;51.486;7.144;2023-08-06T15:35:29;19.90;99.90
31733;DHT22;18312;51.486;7.144;2023-08-06T15:37:56;19.90;99.90
31733;DHT22;18312;51.486;7.144;2023-08-06T15:40:24;20.00;99.90
31733;DHT22;18312;51.486;7.144;2023-08-06T15:42:52;20.00;99.90